createdAt,value
2023-05-19T00:01:21.176Z,52.70
2023-05-19T00:04:07.103Z,51.90
2023-05-19T00:06:34.438Z,52.80
2023-05-19T00:09:10.300Z,52.60
2023-05-19T00:11:39.268Z,53.30
2023-05-19T00:14:08.461Z,52.80
2023-05-19T00:16:37.927Z,53.40
2023-05-19T00:19:06.477Z,53.20
2023-05-19T00:21:33.696Z,53.70
2023-05-19T00:24:00.748Z,53.60
2023-05-19T00:26:27.859Z,53.80
2023-05-19T00:29:00.260Z,54.30
2023-05-19T00:31:27.339Z,54.20
2023-05-19T00:33:55.604Z,53.90
2023-05-19T00:36:22.933Z,54.20
2023-05-19T00:38:51.324Z,54.40
2023-05-19T00:41:18.605Z,54.60
2023-05-19T00:43:45.992Z,54.30
2023-05-19T00:46:13.791Z,54.60
2023-05-19T00:48:41.179Z,54.20
2023-05-19T00:51:08.195Z,54.40
2023-05-19T00:53:35.805Z,54.60
2023-05-19T00:56:03.903Z,54.40
2023-05-19T00:58:32.769Z,54.60
2023-05-19T01:01:04.409Z,54.70
2023-05-19T01:03:35.242Z,54.50
2023-05-19T01:06:05.943Z,54.60
2023-05-19T01:08:37.782Z,55.10
2023-05-19T01:11:06.891Z,54.70
2023-05-19T01:13:35.754Z,55.10
2023-05-19T01:16:30.355Z,55.30
2023-05-19T01:19:28.780Z,55.20
2023-05-19T01:22:06.930Z,55.40
2023-05-19T01:25:05.175Z,55.60
2023-05-19T01:27:57.913Z,55.30
2023-05-19T01:30:25.632Z,55.70
2023-05-19T01:32:56.971Z,55.40
2023-05-19T01:35:25.081Z,55.60
2023-05-19T01:37:56.656Z,55.70
2023-05-19T01:40:24.974Z,55.70
2023-05-19T01:42:56.646Z,56.00
2023-05-19T01:45:27.812Z,55.70
2023-05-19T01:47:58.268Z,55.80
2023-05-19T01:50:25.812Z,56.20
2023-05-19T01:52:53.095Z,55.90
2023-05-19T01:55:21.292Z,56.20
2023-05-19T01:58:12.890Z,56.30
2023-05-19T02:01:10.759Z,56.30
2023-05-19T02:04:14.987Z,56.30
2023-05-19T02:07:20.486Z,56.60
2023-05-19T02:10:06.326Z,57.50
2023-05-19T02:12:36.055Z,57.10
2023-05-19T02:15:12.395Z,57.20
2023-05-19T02:17:47.832Z,57.00
2023-05-19T02:20:18.526Z,57.20
2023-05-19T02:22:45.833Z,57.30
2023-05-19T02:25:13.601Z,57.60
2023-05-19T02:27:41.617Z,57.20
2023-05-19T02:30:09.581Z,57.70
2023-05-19T02:32:37.286Z,57.60
2023-05-19T02:35:04.973Z,57.70
2023-05-19T02:37:32.599Z,57.80
2023-05-19T02:39:59.725Z,58.00
2023-05-19T02:42:26.998Z,57.80
2023-05-19T02:44:55.194Z,57.40
2023-05-19T02:47:22.510Z,58.30
2023-05-19T02:49:49.627Z,57.60
2023-05-19T02:52:16.666Z,58.00
2023-05-19T02:54:43.791Z,58.50
2023-05-19T02:57:11.259Z,58.50
2023-05-19T02:59:38.321Z,58.50
2023-05-19T03:02:05.488Z,58.40
2023-05-19T03:04:32.551Z,58.50
2023-05-19T03:06:59.616Z,58.60
2023-05-19T03:09:26.630Z,59.10
2023-05-19T03:11:53.644Z,59.10
2023-05-19T03:14:24.201Z,59.00
2023-05-19T03:16:51.464Z,59.00
2023-05-19T03:19:18.672Z,59.00
2023-05-19T03:21:46.377Z,58.30
2023-05-19T03:24:13.734Z,59.30
2023-05-19T03:26:42.101Z,59.20
2023-05-19T03:29:09.123Z,58.90
2023-05-19T03:31:37.595Z,59.10
2023-05-19T03:34:05.608Z,59.20
2023-05-19T03:36:32.639Z,58.40
2023-05-19T03:39:00.825Z,59.00
2023-05-19T03:41:28.207Z,58.50
2023-05-19T03:43:56.095Z,59.00
2023-05-19T03:46:23.372Z,58.50
2023-05-19T03:49:03.046Z,58.90
2023-05-19T03:51:49.983Z,58.30
2023-05-19T03:54:31.734Z,59.10
2023-05-19T03:56:59.100Z,59.30
2023-05-19T03:59:26.049Z,58.70
2023-05-19T04:01:53.208Z,58.50
2023-05-19T04:04:21.672Z,58.60
2023-05-19T04:06:48.881Z,59.10
2023-05-19T04:09:16.519Z,58.50
2023-05-19T04:11:43.603Z,58.50
2023-05-19T04:14:10.631Z,58.30
2023-05-19T04:16:37.752Z,58.50
2023-05-19T04:19:04.901Z,58.60
2023-05-19T04:21:31.968Z,58.40
2023-05-19T04:24:00.194Z,58.00
2023-05-19T04:26:30.962Z,58.00
2023-05-19T04:28:58.329Z,57.80
2023-05-19T04:31:25.427Z,57.40
2023-05-19T04:33:53.540Z,57.80
2023-05-19T04:36:21.799Z,57.90
2023-05-19T04:38:54.744Z,57.90
2023-05-19T04:41:23.894Z,58.00
2023-05-19T04:43:51.033Z,58.00
2023-05-19T04:46:24.674Z,58.10
2023-05-19T04:48:55.373Z,57.70
2023-05-19T04:51:22.637Z,58.20
2023-05-19T04:53:49.810Z,58.10
2023-05-19T04:56:17.122Z,57.50
2023-05-19T04:58:45.569Z,55.00
2023-05-19T05:01:13.962Z,55.90
2023-05-19T05:03:42.266Z,56.80
2023-05-19T05:06:11.751Z,59.80
2023-05-19T05:08:40.535Z,58.40
2023-05-19T05:11:07.998Z,57.70
2023-05-19T05:13:35.368Z,58.40
2023-05-19T05:16:04.724Z,60.20
2023-05-19T05:18:32.829Z,59.70
2023-05-19T05:21:00.187Z,59.60
2023-05-19T05:23:27.922Z,59.30
2023-05-19T05:25:55.452Z,58.30
2023-05-19T05:28:22.874Z,59.00
2023-05-19T05:30:50.413Z,61.00
2023-05-19T05:33:19.551Z,61.30
2023-05-19T05:35:47.101Z,60.30
2023-05-19T05:38:15.184Z,60.10
2023-05-19T05:40:42.630Z,59.40
2023-05-19T05:43:10.178Z,58.70
2023-05-19T05:45:43.962Z,58.50
2023-05-19T05:48:11.585Z,57.90
2023-05-19T05:50:39.515Z,57.60
2023-05-19T05:53:08.980Z,59.00
2023-05-19T05:55:39.625Z,59.40
2023-05-19T05:58:11.125Z,58.60
2023-05-19T06:00:38.758Z,57.10
2023-05-19T06:03:05.883Z,55.60
2023-05-19T06:05:33.114Z,55.70
2023-05-19T06:08:00.207Z,55.40
2023-05-19T06:10:31.938Z,55.20
2023-05-19T06:12:59.517Z,53.90
2023-05-19T06:15:27.055Z,54.80
2023-05-19T06:18:09.130Z,54.50
2023-05-19T06:20:36.313Z,54.60
2023-05-19T06:23:03.438Z,54.20
2023-05-19T06:25:30.853Z,55.10
2023-05-19T06:27:58.169Z,54.60
2023-05-19T06:30:25.643Z,54.40
2023-05-19T06:33:03.136Z,54.60
2023-05-19T06:35:31.461Z,54.40
2023-05-19T06:37:58.830Z,54.60
2023-05-19T06:40:25.808Z,54.90
2023-05-19T06:42:55.772Z,55.00
2023-05-19T06:45:42.813Z,54.60
2023-05-19T06:48:11.464Z,55.50
2023-05-19T06:50:38.519Z,54.30
2023-05-19T06:53:06.195Z,53.70
2023-05-19T06:55:34.433Z,55.20
2023-05-19T06:58:04.161Z,55.10
2023-05-19T07:00:31.185Z,54.60
2023-05-19T07:02:58.456Z,54.60
2023-05-19T07:05:25.670Z,54.00
2023-05-19T07:07:56.613Z,54.20
2023-05-19T07:10:26.878Z,54.40
2023-05-19T07:12:55.150Z,54.20
2023-05-19T07:15:24.984Z,54.20
2023-05-19T07:17:52.086Z,54.50
2023-05-19T07:20:19.105Z,53.90
2023-05-19T07:22:46.587Z,53.40
2023-05-19T07:25:13.534Z,52.50
2023-05-19T07:27:40.928Z,53.10
2023-05-19T07:30:08.503Z,52.70
2023-05-19T07:32:35.528Z,52.20
2023-05-19T07:35:02.715Z,51.50
2023-05-19T07:37:29.806Z,51.20
2023-05-19T07:39:56.781Z,50.40
2023-05-19T07:42:23.812Z,50.10
2023-05-19T07:44:50.838Z,49.50
2023-05-19T07:47:17.868Z,49.80
2023-05-19T07:49:44.979Z,49.80
2023-05-19T07:52:12.157Z,49.50
2023-05-19T07:54:39.155Z,49.40
2023-05-19T07:57:06.218Z,48.80
2023-05-19T07:59:33.175Z,48.10
2023-05-19T08:02:00.277Z,48.50
2023-05-19T08:04:27.844Z,48.40
2023-05-19T08:06:55.148Z,48.20
2023-05-19T08:09:22.257Z,48.30
2023-05-19T08:11:50.004Z,48.20
2023-05-19T08:14:17.147Z,47.70
2023-05-19T08:16:46.126Z,47.70
2023-05-19T08:19:13.105Z,47.70
2023-05-19T08:21:42.254Z,47.10
2023-05-19T08:24:09.422Z,47.60
2023-05-19T08:26:37.629Z,47.40
2023-05-19T08:29:05.121Z,47.40
2023-05-19T08:31:32.653Z,47.40
2023-05-19T08:33:59.854Z,47.80
2023-05-19T08:36:27.694Z,47.00
2023-05-19T08:38:54.622Z,46.80
2023-05-19T08:41:23.266Z,47.10
2023-05-19T08:43:50.627Z,46.00
2023-05-19T08:46:18.365Z,46.90
2023-05-19T08:48:48.053Z,46.40
2023-05-19T08:51:38.276Z,46.70
2023-05-19T08:54:15.877Z,47.00
2023-05-19T08:56:45.575Z,47.40
2023-05-19T08:59:15.291Z,47.10
2023-05-19T09:01:46.446Z,47.20
2023-05-19T09:04:14.118Z,47.30
2023-05-19T09:06:41.382Z,46.70
2023-05-19T09:09:08.806Z,46.30
2023-05-19T09:11:37.600Z,46.70
2023-05-19T09:14:05.898Z,45.10
2023-05-19T09:16:34.269Z,45.60
2023-05-19T09:19:01.591Z,46.50
2023-05-19T09:21:32.558Z,46.30
2023-05-19T09:24:06.142Z,46.30
2023-05-19T09:26:43.129Z,46.40
2023-05-19T09:29:17.325Z,45.50
2023-05-19T09:31:55.927Z,45.40
2023-05-19T09:34:25.010Z,45.80
2023-05-19T09:36:54.033Z,46.50
2023-05-19T09:39:23.301Z,46.60
2023-05-19T09:41:54.414Z,46.20
2023-05-19T09:44:21.481Z,45.70
2023-05-19T09:46:49.911Z,46.00
2023-05-19T09:49:21.815Z,45.30
2023-05-19T09:51:56.666Z,45.10
2023-05-19T09:54:24.804Z,44.70
2023-05-19T09:56:59.098Z,45.30
2023-05-19T09:59:28.033Z,46.20
2023-05-19T10:01:58.430Z,46.40
2023-05-19T10:04:27.366Z,46.50
2023-05-19T10:06:55.787Z,46.90
2023-05-19T10:09:27.773Z,45.40
2023-05-19T10:11:56.471Z,46.20
2023-05-19T10:14:28.005Z,47.80
2023-05-19T10:16:57.328Z,47.50
2023-05-19T10:19:26.513Z,46.70
2023-05-19T10:21:54.314Z,45.00
2023-05-19T10:24:21.715Z,44.40
2023-05-19T10:26:57.630Z,45.00
2023-05-19T10:29:31.900Z,44.10
2023-05-19T10:32:03.475Z,44.90
2023-05-19T10:35:08.347Z,47.70
2023-05-19T10:37:59.254Z,46.90
2023-05-19T10:40:29.387Z,45.30
2023-05-19T10:43:14.961Z,43.90
2023-05-19T10:45:55.576Z,43.50
2023-05-19T10:48:23.222Z,44.00
2023-05-19T10:50:54.829Z,44.10
2023-05-19T10:53:22.857Z,45.10
2023-05-19T10:55:56.458Z,44.60
2023-05-19T10:58:45.161Z,46.90
2023-05-19T11:01:16.990Z,46.60
2023-05-19T11:03:48.712Z,45.90
2023-05-19T11:06:27.467Z,47.30
2023-05-19T11:09:00.887Z,46.00
2023-05-19T11:11:50.139Z,44.50
2023-05-19T11:14:24.040Z,44.20
2023-05-19T11:16:52.798Z,45.10
2023-05-19T11:19:34.608Z,43.30
2023-05-19T11:22:13.410Z,44.60
2023-05-19T11:24:57.985Z,44.00
2023-05-19T11:27:32.714Z,44.40
2023-05-19T11:30:02.378Z,45.20
2023-05-19T11:32:31.880Z,45.00
2023-05-19T11:34:59.410Z,44.90
2023-05-19T11:37:26.825Z,45.90
2023-05-19T11:39:53.866Z,43.00
2023-05-19T11:42:20.976Z,45.00
2023-05-19T11:44:48.018Z,45.50
2023-05-19T11:47:16.250Z,43.50
2023-05-19T11:49:48.457Z,45.40
2023-05-19T11:52:15.931Z,45.30
2023-05-19T11:54:43.060Z,45.00
2023-05-19T11:57:14.098Z,44.00
2023-05-19T11:59:45.470Z,43.60
2023-05-19T12:02:24.995Z,43.70
2023-05-19T12:04:52.867Z,43.40
2023-05-19T12:07:23.489Z,43.20
2023-05-19T12:09:52.169Z,43.50
2023-05-19T12:12:21.649Z,43.90
2023-05-19T12:14:51.042Z,47.20
2023-05-19T12:17:20.059Z,47.10
2023-05-19T12:19:48.944Z,47.10
2023-05-19T12:22:17.292Z,43.60
2023-05-19T12:24:46.119Z,45.00
2023-05-19T12:27:16.957Z,46.30
2023-05-19T12:29:48.945Z,43.00
2023-05-19T12:32:15.990Z,44.10
2023-05-19T12:34:43.044Z,42.90
2023-05-19T12:37:11.095Z,45.40
2023-05-19T12:39:38.259Z,48.30
2023-05-19T12:42:08.833Z,44.80
2023-05-19T12:44:47.030Z,46.70
2023-05-19T12:47:15.769Z,45.70
2023-05-19T12:50:04.013Z,43.70
2023-05-19T12:52:35.741Z,44.70
2023-05-19T12:55:06.559Z,46.30
2023-05-19T12:57:38.412Z,43.00
2023-05-19T13:00:17.911Z,45.10
2023-05-19T13:03:05.737Z,43.10
2023-05-19T13:05:38.218Z,44.30
2023-05-19T13:08:09.491Z,44.30
2023-05-19T13:10:38.493Z,43.90
2023-05-19T13:13:06.265Z,43.20
2023-05-19T13:15:36.438Z,43.10
2023-05-19T13:18:06.843Z,41.70
2023-05-19T13:20:34.335Z,41.70
2023-05-19T13:23:02.232Z,43.10
2023-05-19T13:25:29.505Z,42.80
2023-05-19T13:27:56.919Z,42.50
2023-05-19T13:30:24.417Z,43.80
2023-05-19T13:32:52.763Z,42.10
2023-05-19T13:35:20.063Z,42.50
2023-05-19T13:37:47.143Z,41.80
2023-05-19T13:40:14.360Z,42.60
2023-05-19T13:42:41.803Z,41.70
2023-05-19T13:45:09.681Z,43.50
2023-05-19T13:47:36.905Z,46.40
2023-05-19T13:50:05.511Z,44.60
2023-05-19T13:52:32.899Z,43.20
2023-05-19T13:55:01.244Z,43.70
2023-05-19T13:57:28.329Z,42.80
2023-05-19T14:00:02.579Z,43.20
2023-05-19T14:02:40.525Z,44.60
2023-05-19T14:05:08.100Z,43.60
2023-05-19T14:07:35.760Z,44.60
2023-05-19T14:10:05.576Z,42.40
2023-05-19T14:12:41.549Z,44.70
2023-05-19T14:15:14.639Z,46.60
2023-05-19T14:17:42.072Z,49.00
2023-05-19T14:20:09.837Z,48.00
2023-05-19T14:22:36.933Z,44.10
2023-05-19T14:25:04.077Z,44.30
2023-05-19T14:27:31.098Z,44.70
2023-05-19T14:29:58.314Z,45.30
2023-05-19T14:32:26.806Z,43.00
2023-05-19T14:34:55.755Z,44.20
2023-05-19T14:37:22.792Z,43.50
2023-05-19T14:39:50.117Z,43.20
2023-05-19T14:42:17.145Z,44.10
2023-05-19T14:44:44.129Z,45.00
2023-05-19T14:47:12.456Z,47.30
2023-05-19T14:49:41.287Z,44.60
2023-05-19T14:52:08.478Z,47.20
2023-05-19T14:54:35.660Z,43.60
2023-05-19T14:57:03.065Z,46.70
2023-05-19T14:59:30.053Z,43.10
2023-05-19T15:01:57.097Z,43.50
2023-05-19T15:04:24.164Z,43.60
2023-05-19T15:07:08.690Z,42.50
2023-05-19T15:09:37.099Z,42.80
2023-05-19T15:12:04.338Z,42.70
2023-05-19T15:14:31.627Z,41.60
2023-05-19T15:16:59.177Z,45.90
2023-05-19T15:19:26.636Z,43.40
2023-05-19T15:21:54.214Z,45.00
2023-05-19T15:24:21.551Z,45.50
2023-05-19T15:26:48.755Z,42.80
2023-05-19T15:29:15.906Z,44.60
2023-05-19T15:31:42.965Z,45.60
2023-05-19T15:34:10.374Z,45.70
2023-05-19T15:36:37.390Z,44.90
2023-05-19T15:39:05.098Z,42.90
2023-05-19T15:41:32.153Z,44.30
2023-05-19T15:44:00.632Z,48.60
2023-05-19T15:46:28.412Z,45.00
2023-05-19T15:48:55.887Z,46.10
2023-05-19T15:51:23.739Z,49.60
2023-05-19T15:53:50.790Z,44.20
2023-05-19T15:56:19.389Z,43.30
2023-05-19T15:58:46.435Z,41.80
2023-05-19T16:01:14.745Z,42.50
2023-05-19T16:03:42.003Z,41.70
2023-05-19T16:06:09.095Z,39.60
2023-05-19T16:08:36.118Z,45.00
2023-05-19T16:11:03.251Z,42.80
2023-05-19T16:13:30.792Z,42.40
2023-05-19T16:15:58.009Z,45.20
2023-05-19T16:18:25.187Z,42.30
2023-05-19T16:20:52.327Z,44.30
2023-05-19T16:23:19.367Z,44.40
2023-05-19T16:25:47.548Z,44.60
2023-05-19T16:28:14.711Z,43.70
2023-05-19T16:30:42.613Z,44.40
2023-05-19T16:33:09.677Z,42.10
2023-05-19T16:35:37.126Z,39.70
2023-05-19T16:38:04.169Z,42.60
2023-05-19T16:40:31.302Z,41.30
2023-05-19T16:42:58.446Z,44.00
2023-05-19T16:45:26.519Z,42.70
2023-05-19T16:47:53.742Z,42.80
2023-05-19T16:50:20.781Z,41.00
2023-05-19T16:52:47.893Z,41.10
2023-05-19T16:55:19.638Z,44.70
2023-05-19T16:57:47.130Z,42.40
2023-05-19T17:00:14.867Z,42.20
2023-05-19T17:02:42.153Z,42.70
2023-05-19T17:05:09.613Z,43.00
2023-05-19T17:07:36.707Z,40.60
2023-05-19T17:10:04.025Z,41.70
2023-05-19T17:12:31.680Z,41.40
2023-05-19T17:14:58.680Z,42.50
2023-05-19T17:17:25.868Z,40.50
2023-05-19T17:19:53.021Z,41.80
2023-05-19T17:22:20.131Z,42.90
2023-05-19T17:24:47.367Z,43.20
2023-05-19T17:27:15.110Z,43.80
2023-05-19T17:29:42.236Z,43.60
2023-05-19T17:32:09.292Z,42.60
2023-05-19T17:34:36.317Z,43.00
2023-05-19T17:37:03.424Z,42.40
2023-05-19T17:39:30.398Z,42.70
2023-05-19T17:41:57.484Z,42.20
2023-05-19T17:44:24.684Z,43.10
2023-05-19T17:46:51.785Z,43.10
2023-05-19T17:49:18.788Z,42.50
2023-05-19T17:51:46.101Z,44.30
2023-05-19T17:54:13.355Z,42.80
2023-05-19T17:56:44.853Z,43.70
2023-05-19T17:59:12.132Z,44.80
2023-05-19T18:01:40.793Z,44.60
2023-05-19T18:04:08.524Z,43.60
2023-05-19T18:06:38.496Z,43.20
2023-05-19T18:09:09.790Z,43.00
2023-05-19T18:11:37.724Z,43.40
2023-05-19T18:14:04.863Z,43.80
2023-05-19T18:16:39.171Z,43.80
2023-05-19T18:19:06.342Z,43.00
2023-05-19T18:21:33.795Z,43.70
2023-05-19T18:24:03.455Z,43.70
2023-05-19T18:26:33.577Z,45.20
2023-05-19T18:29:04.787Z,43.80
2023-05-19T18:31:32.134Z,44.60
2023-05-19T18:33:59.398Z,44.40
2023-05-19T18:36:26.483Z,44.30
2023-05-19T18:38:55.086Z,44.00
2023-05-19T18:41:22.252Z,44.10
2023-05-19T18:43:49.234Z,43.70
2023-05-19T18:46:19.286Z,44.20
2023-05-19T18:48:47.251Z,42.70
2023-05-19T18:51:15.791Z,42.80
2023-05-19T18:53:42.760Z,43.20
2023-05-19T18:56:12.314Z,42.80
2023-05-19T18:58:39.300Z,42.40
2023-05-19T19:01:07.134Z,42.90
2023-05-19T19:03:34.308Z,43.30
2023-05-19T19:06:01.599Z,43.10
2023-05-19T19:08:28.610Z,42.10
2023-05-19T19:11:00.277Z,42.90
2023-05-19T19:13:28.147Z,42.30
2023-05-19T19:15:55.259Z,43.00
2023-05-19T19:18:22.532Z,42.90
2023-05-19T19:20:49.622Z,43.10
2023-05-19T19:23:16.570Z,43.00
2023-05-19T19:25:43.614Z,42.80
2023-05-19T19:30:57.338Z,43.00
2023-05-19T19:33:24.786Z,43.50
2023-05-19T19:35:51.797Z,42.90
2023-05-19T19:38:18.826Z,43.40
2023-05-19T19:40:45.868Z,42.90
2023-05-19T19:43:13.025Z,43.70
2023-05-19T19:45:40.150Z,43.80
2023-05-19T19:48:07.444Z,43.30
2023-05-19T19:50:34.742Z,43.50
2023-05-19T19:53:02.108Z,43.60
2023-05-19T19:55:30.682Z,43.60
2023-05-19T19:57:57.756Z,43.00
2023-05-19T20:00:24.782Z,43.20
2023-05-19T20:03:04.476Z,43.30
2023-05-19T20:05:32.663Z,43.00
2023-05-19T20:07:59.778Z,43.30
2023-05-19T20:10:26.839Z,43.50
2023-05-19T20:12:54.588Z,43.50
2023-05-19T20:15:21.770Z,43.00
2023-05-19T20:17:51.617Z,43.10
2023-05-19T20:20:18.630Z,43.20
2023-05-19T20:22:46.063Z,42.80
2023-05-19T20:25:13.413Z,43.20
2023-05-19T20:27:40.710Z,43.10
2023-05-19T20:30:08.270Z,43.10
2023-05-19T20:32:36.019Z,42.80
2023-05-19T20:35:03.244Z,42.70
2023-05-19T20:37:30.278Z,43.00
2023-05-19T20:39:57.554Z,42.80
2023-05-19T20:42:24.832Z,43.20
2023-05-19T20:44:52.084Z,43.30
2023-05-19T20:47:20.184Z,42.70
2023-05-19T20:49:48.336Z,43.20
2023-05-19T20:52:16.230Z,43.00
2023-05-19T20:54:43.283Z,43.10
2023-05-19T20:57:10.407Z,42.90
2023-05-19T20:59:37.800Z,42.90
2023-05-19T21:02:06.267Z,42.80
2023-05-19T21:04:33.732Z,43.00
2023-05-19T21:07:01.183Z,43.00
2023-05-19T21:09:28.300Z,43.40
2023-05-19T21:11:55.395Z,42.90
2023-05-19T21:14:22.989Z,43.60
2023-05-19T21:16:50.848Z,43.40
2023-05-19T21:19:18.294Z,43.20
2023-05-19T21:21:47.235Z,44.10
2023-05-19T21:24:14.980Z,43.80
2023-05-19T21:26:43.416Z,44.00
2023-05-19T21:29:10.428Z,43.90
2023-05-19T21:31:37.743Z,44.00
2023-05-19T21:34:07.221Z,44.50
2023-05-19T21:36:35.245Z,44.20
2023-05-19T21:39:02.280Z,45.00
2023-05-19T21:41:31.102Z,44.60
2023-05-19T21:43:58.173Z,44.80
2023-05-19T21:46:25.263Z,44.50
2023-05-19T21:48:52.251Z,44.60
2023-05-19T21:51:19.216Z,44.80
2023-05-19T21:53:46.198Z,45.60
2023-05-19T21:56:13.146Z,45.60
2023-05-19T21:58:40.095Z,45.80
2023-05-19T22:01:08.037Z,46.00
2023-05-19T22:03:35.121Z,46.00
2023-05-19T22:06:02.522Z,45.80
2023-05-19T22:08:29.550Z,46.20
2023-05-19T22:10:56.742Z,46.20
2023-05-19T22:13:23.742Z,46.30
2023-05-19T22:15:50.984Z,46.40
2023-05-19T22:18:18.027Z,46.40
2023-05-19T22:20:45.060Z,46.60
2023-05-19T22:23:11.993Z,46.60
2023-05-19T22:25:38.968Z,46.80
2023-05-19T22:28:07.994Z,46.70
2023-05-19T22:30:38.509Z,47.40
2023-05-19T22:33:06.996Z,47.40
2023-05-19T22:35:34.114Z,47.40
2023-05-19T22:38:01.257Z,47.30
2023-05-19T22:40:28.321Z,47.30
2023-05-19T22:42:55.413Z,47.20
2023-05-19T22:45:22.468Z,47.60
2023-05-19T22:47:50.756Z,47.70
2023-05-19T22:50:17.897Z,47.60
2023-05-19T22:52:45.074Z,47.70
2023-05-19T22:55:12.206Z,47.80
2023-05-19T22:57:39.200Z,48.10
2023-05-19T23:00:06.798Z,48.20
2023-05-19T23:02:33.912Z,48.20
2023-05-19T23:05:01.158Z,48.20
2023-05-19T23:07:28.164Z,48.20
2023-05-19T23:09:55.098Z,48.20
2023-05-19T23:12:22.078Z,48.30
2023-05-19T23:14:49.143Z,48.30
2023-05-19T23:17:16.165Z,48.40
2023-05-19T23:19:43.167Z,48.80
2023-05-19T23:22:11.214Z,48.60
2023-05-19T23:24:38.690Z,48.70
2023-05-19T23:27:06.173Z,48.60
2023-05-19T23:29:33.089Z,48.60
2023-05-19T23:32:00.284Z,48.60
2023-05-19T23:34:27.250Z,48.80
2023-05-19T23:36:54.310Z,49.10
2023-05-19T23:39:22.111Z,48.50
2023-05-19T23:41:49.125Z,48.90
2023-05-19T23:44:16.118Z,48.70
2023-05-19T23:46:43.110Z,49.00
2023-05-19T23:49:10.144Z,48.60
2023-05-19T23:51:37.206Z,48.80
2023-05-19T23:54:04.270Z,49.00
2023-05-19T23:56:31.251Z,48.70
2023-05-19T23:58:58.264Z,48.70
